Fuerteventura (La Oliva), Spain
Current Conditions -  °F | °C
As of 11:00 PM on Friday 19 Dec 2014 (Local Time) from GCFV Reporting Station
Scattered Clouds Scattered Clouds  
Wind Chill: 64°   Ceiling: Unl
Heat Index: 64°   Visibility: 6mi
Dew Point: 59°   Wind: 15mph
Humidity: 83%   Direction: 40°NE
Pressure: 30.36"   Gusts: NA
Location:  28.6°N, 13.93°W
Report Text: GCFV 192300Z 04013KT 9999 SCT020 18/15 Q1028
Loading
Personal Weather Stations






























Interactive Weather Map New forecast layout! Learn more

10-Day Weather Forecast

Advertisements
Track Severe Weather on mobile